Terminal Aerodrome Forecast
Issued by NWS Memphis, TN

Home | Current Version | Previous Version | Text Only | Print | Product List | Glossary On
Versions: 1 2 3 4 5 6 7 8 9 10 11 12 13 14 15 16 17 18
000
FTUS44 KMEG 251131
TAFJBR
TAF
KJBR 251131Z 2512/2612 36006KT P6SM BKN120
     FM260100 VRB03KT P6SM SCT120
     FM260900 30004KT P6SM BKN120=

USA.gov is the U.S. government's official web portal to all federal, state and local government web resources and services.